createdAt,value
2015-07-22T00:00:12.099Z,12.66
2015-07-22T00:00:24.442Z,12.71
2015-07-22T00:00:36.786Z,12.66
2015-07-22T00:00:49.132Z,12.7
2015-07-22T00:01:01.491Z,12.74
2015-07-22T00:01:13.835Z,12.65
2015-07-22T00:01:26.179Z,12.76
2015-07-22T00:01:38.554Z,12.61
2015-07-22T00:01:50.930Z,12.71
2015-07-22T00:02:03.289Z,12.65
2015-07-22T00:02:15.664Z,12.7
2015-07-22T00:02:28.039Z,12.69
2015-07-22T00:02:40.430Z,12.7
2015-07-22T00:02:52.792Z,12.69
2015-07-22T00:03:05.183Z,12.69
2015-07-22T00:03:17.527Z,12.66
2015-07-22T00:03:29.870Z,12.65
2015-07-22T00:03:42.214Z,12.7
2015-07-22T00:03:54.559Z,12.76
2015-07-22T00:04:06.903Z,12.7
2015-07-22T00:04:19.246Z,12.71
2015-07-22T00:04:31.590Z,12.7
2015-07-22T00:04:43.934Z,12.7
2015-07-22T00:04:56.280Z,12.63
2015-07-22T00:05:08.826Z,12.56
2015-07-22T00:05:21.170Z,12.61
2015-07-22T00:05:33.514Z,12.63
2015-07-22T00:05:45.842Z,12.66
2015-07-22T00:05:58.189Z,12.65
2015-07-22T00:06:10.533Z,12.73
2015-07-22T00:06:22.876Z,12.58
2015-07-22T00:06:35.204Z,12.65
2015-07-22T00:06:47.564Z,12.56
2015-07-22T00:06:59.924Z,12.65
2015-07-22T00:07:12.268Z,12.56
2015-07-22T00:07:24.643Z,12.56
2015-07-22T00:07:37.018Z,12.63
2015-07-22T00:07:48.690Z,12.61
2015-07-22T00:08:01.051Z,12.58
2015-07-22T00:08:13.411Z,12.53
2015-07-22T00:08:25.801Z,12.56
2015-07-22T00:08:38.176Z,12.66
2015-07-22T00:08:50.504Z,12.59
2015-07-22T00:09:02.850Z,12.55
2015-07-22T00:09:15.194Z,12.59
2015-07-22T00:09:27.522Z,12.58
2015-07-22T00:09:39.881Z,12.53
2015-07-22T00:09:52.225Z,12.56
2015-07-22T00:10:04.555Z,12.56
2015-07-22T00:10:16.899Z,12.55
2015-07-22T00:10:29.258Z,12.56
2015-07-22T00:10:41.602Z,12.63
2015-07-22T00:10:53.948Z,12.66
2015-07-22T00:11:06.276Z,12.61
2015-07-22T00:11:18.620Z,12.53
2015-07-22T00:11:30.963Z,12.56
2015-07-22T00:11:43.307Z,12.53
2015-07-22T00:11:55.637Z,12.53
2015-07-22T00:12:07.981Z,12.58
2015-07-22T00:12:20.325Z,12.56
2015-07-22T00:12:32.669Z,12.56
2015-07-22T00:12:45.012Z,12.59
2015-07-22T00:12:57.374Z,12.55
2015-07-22T00:13:09.749Z,12.58
2015-07-22T00:13:22.139Z,12.56
2015-07-22T00:13:34.514Z,12.55
2015-07-22T00:13:46.874Z,12.58
2015-07-22T00:13:59.251Z,12.62
2015-07-22T00:14:11.657Z,12.63
2015-07-22T00:14:23.985Z,12.55
2015-07-22T00:14:36.329Z,12.53
2015-07-22T00:14:48.657Z,12.59
2015-07-22T00:15:00.987Z,12.55
2015-07-22T00:15:13.346Z,12.56
2015-07-22T00:15:25.675Z,12.59
2015-07-22T00:15:38.018Z,12.56
2015-07-22T00:15:50.362Z,12.58
2015-07-22T00:16:02.692Z,12.47
2015-07-22T00:16:15.052Z,12.58
2015-07-22T00:16:27.395Z,12.48
2015-07-22T00:16:39.723Z,12.55
2015-07-22T00:16:52.067Z,12.58
2015-07-22T00:17:04.397Z,12.45
2015-07-22T00:17:16.741Z,12.43
2015-07-22T00:17:29.085Z,12.45
2015-07-22T00:17:41.444Z,12.44
2015-07-22T00:17:53.804Z,12.47
2015-07-22T00:18:06.165Z,12.53
2015-07-22T00:18:18.509Z,12.41
2015-07-22T00:18:30.852Z,12.45
2015-07-22T00:18:43.227Z,12.41
2015-07-22T00:18:55.618Z,12.48
2015-07-22T00:19:07.964Z,12.41
2015-07-22T00:19:20.308Z,12.4
2015-07-22T00:19:32.651Z,12.48
2015-07-22T00:19:44.979Z,12.38
2015-07-22T00:19:57.604Z,12.38
2015-07-22T00:20:09.950Z,12.45
2015-07-22T00:20:22.294Z,12.38
2015-07-22T00:20:34.638Z,12.44
2015-07-22T00:20:46.966Z,12.41
2015-07-22T00:20:59.310Z,12.38
2015-07-22T00:21:11.654Z,12.34
2015-07-22T00:21:23.982Z,12.45
2015-07-22T00:21:36.342Z,12.36
2015-07-22T00:21:48.701Z,12.36
2015-07-22T00:22:01.045Z,12.4
2015-07-22T00:22:13.392Z,12.36
2015-07-22T00:22:25.735Z,12.26
2015-07-22T00:22:38.079Z,12.28
2015-07-22T00:22:50.439Z,12.37
2015-07-22T00:23:02.782Z,12.29
2015-07-22T00:23:14.424Z,12.33
2015-07-22T00:23:26.799Z,12.34
2015-07-22T00:23:39.158Z,12.33
2015-07-22T00:23:50.111Z,12.28
2015-07-22T00:24:02.486Z,12.4
2015-07-22T00:24:14.911Z,12.31
2015-07-22T00:24:27.271Z,12.33
2015-07-22T00:24:39.630Z,12.34
2015-07-22T00:24:51.958Z,12.33
2015-07-22T00:25:04.302Z,12.33
2015-07-22T00:25:16.647Z,12.26
2015-07-22T00:25:28.990Z,12.23
2015-07-22T00:25:41.334Z,12.26
2015-07-22T00:25:53.678Z,12.26
2015-07-22T00:26:06.006Z,12.23
2015-07-22T00:26:18.353Z,12.25
2015-07-22T00:26:30.712Z,12.29
2015-07-22T00:26:43.056Z,12.23
2015-07-22T00:26:55.400Z,12.23
2015-07-22T00:27:07.728Z,12.25
2015-07-22T00:27:20.089Z,12.2
2015-07-22T00:27:32.417Z,12.29
2015-07-22T00:27:44.761Z,12.19
2015-07-22T00:27:57.105Z,12.22
2015-07-22T00:28:09.449Z,12.2
2015-07-22T00:28:21.809Z,12.18
2015-07-22T00:28:34.153Z,12.22
2015-07-22T00:28:46.496Z,12.19
2015-07-22T00:28:58.856Z,12.29
2015-07-22T00:29:11.262Z,12.19
2015-07-22T00:29:23.639Z,12.13
2015-07-22T00:29:36.014Z,12.25
2015-07-22T00:29:48.405Z,12.19
2015-07-22T00:30:00.764Z,12.15
2015-07-22T00:30:12.420Z,12.2
2015-07-22T00:30:24.767Z,12.11
2015-07-22T00:30:37.111Z,12.2
2015-07-22T00:30:49.455Z,12.16
2015-07-22T00:31:01.783Z,12.23
2015-07-22T00:31:14.126Z,12.19
2015-07-22T00:31:26.472Z,12.16
2015-07-22T00:31:38.816Z,12.13
2015-07-22T00:31:51.144Z,12.2
2015-07-22T00:32:03.488Z,12.18
2015-07-22T00:32:15.816Z,12.22
2015-07-22T00:32:28.177Z,12.16
2015-07-22T00:32:40.521Z,12.16
2015-07-22T00:32:52.162Z,12.13
2015-07-22T00:33:03.787Z,12.11
2015-07-22T00:33:16.130Z,12.18
2015-07-22T00:33:28.476Z,12.25
2015-07-22T00:33:40.804Z,12.18
2015-07-22T00:33:53.179Z,12.2
2015-07-22T00:34:05.539Z,12.11
2015-07-22T00:34:17.882Z,12.11
2015-07-22T00:34:30.258Z,12.16
2015-07-22T00:34:42.633Z,12.19
2015-07-22T00:34:55.008Z,12.05
2015-07-22T00:35:07.368Z,12.16
2015-07-22T00:35:19.743Z,12.16
2015-07-22T00:35:32.120Z,12.13
2015-07-22T00:35:44.495Z,12.05
2015-07-22T00:35:56.823Z,12.13
2015-07-22T00:36:09.167Z,12.16
2015-07-22T00:36:21.510Z,12.18
2015-07-22T00:36:33.856Z,12.07
2015-07-22T00:36:46.200Z,12.13
2015-07-22T00:36:58.528Z,12.05
2015-07-22T00:37:10.856Z,12.2
2015-07-22T00:37:23.044Z,12.15
2015-07-22T00:37:35.389Z,12.13
2015-07-22T00:37:47.718Z,12.08
2015-07-22T00:38:00.077Z,12.13
2015-07-22T00:38:12.421Z,12.19
2015-07-22T00:38:24.046Z,12.15
2015-07-22T00:38:36.391Z,12.19
2015-07-22T00:38:48.720Z,12.11
2015-07-22T00:39:01.063Z,12.18
2015-07-22T00:39:13.423Z,12.18
2015-07-22T00:39:25.766Z,12.11
2015-07-22T00:39:38.128Z,12.1
2015-07-22T00:39:50.487Z,12.13
2015-07-22T00:40:02.862Z,12.11
2015-07-22T00:40:15.222Z,12.08
2015-07-22T00:40:27.597Z,12.08
2015-07-22T00:40:39.958Z,12.11
2015-07-22T00:40:52.333Z,12.07
2015-07-22T00:41:04.708Z,12.15
2015-07-22T00:41:17.114Z,12.11
2015-07-22T00:41:29.489Z,12.11
2015-07-22T00:41:41.835Z,12.22
2015-07-22T00:41:54.179Z,12.11
2015-07-22T00:42:06.507Z,12.03
2015-07-22T00:42:18.866Z,12.16
2015-07-22T00:42:30.491Z,12.05
2015-07-22T00:42:42.837Z,12.08
2015-07-22T00:42:55.165Z,12.19
2015-07-22T00:43:07.524Z,12.08
2015-07-22T00:43:19.868Z,12.22
2015-07-22T00:43:32.259Z,12.11
2015-07-22T00:43:44.605Z,12.08
2015-07-22T00:43:56.948Z,12.19
2015-07-22T00:44:09.292Z,12.18
2015-07-22T00:44:21.636Z,12.13
2015-07-22T00:44:33.980Z,12.1
2015-07-22T00:44:46.325Z,12.08
2015-07-22T00:44:58.685Z,12.08
2015-07-22T00:45:11.028Z,12.15
2015-07-22T00:45:23.372Z,12.19
2015-07-22T00:45:35.732Z,12.2
2015-07-22T00:45:48.109Z,12.2
2015-07-22T00:46:00.468Z,12.07
2015-07-22T00:46:12.843Z,12.16
2015-07-22T00:46:24.499Z,12.18
2015-07-22T00:46:36.874Z,12.13
2015-07-22T00:46:49.250Z,12.19
2015-07-22T00:47:01.578Z,12.16
2015-07-22T00:47:13.922Z,12.19
2015-07-22T00:47:26.266Z,12.18
2015-07-22T00:47:38.594Z,12.16
2015-07-22T00:47:50.941Z,12.16
2015-07-22T00:48:03.269Z,12.22
2015-07-22T00:48:15.628Z,12.11
2015-07-22T00:48:27.956Z,12.15
2015-07-22T00:48:40.316Z,12.15
2015-07-22T00:48:52.646Z,12.16
2015-07-22T00:49:04.990Z,12.1
2015-07-22T00:49:17.333Z,12.1
2015-07-22T00:49:29.661Z,12.13
2015-07-22T00:49:42.005Z,12.18
2015-07-22T00:49:54.351Z,12.16
2015-07-22T00:50:06.679Z,12.22
2015-07-22T00:50:19.054Z,12.15
2015-07-22T00:50:31.413Z,12.19
2015-07-22T00:50:43.773Z,12.19
2015-07-22T00:50:56.119Z,12.16
2015-07-22T00:51:08.478Z,12.18
2015-07-22T00:51:20.837Z,12.11
2015-07-22T00:51:33.212Z,12.23
2015-07-22T00:51:45.588Z,12.22
2015-07-22T00:51:57.948Z,12.19
2015-07-22T00:52:10.307Z,12.16
2015-07-22T00:52:22.698Z,12.16
2015-07-22T00:52:35.041Z,12.15
2015-07-22T00:52:47.387Z,12.11
2015-07-22T00:52:59.012Z,12.13
2015-07-22T00:53:11.356Z,12.18
2015-07-22T00:53:23.700Z,12.1
2015-07-22T00:53:36.043Z,12.2
2015-07-22T00:53:48.390Z,12.15
2015-07-22T00:54:00.734Z,12.11
2015-07-22T00:54:13.078Z,12.15
2015-07-22T00:54:25.421Z,12.11
2015-07-22T00:54:37.765Z,12.1
2015-07-22T00:54:50.110Z,12.15
2015-07-22T00:55:02.454Z,12.18
2015-07-22T00:55:14.797Z,12.18
2015-07-22T00:55:27.141Z,12.16
2015-07-22T00:55:39.485Z,12.18
2015-07-22T00:55:51.831Z,12.11
2015-07-22T00:56:04.174Z,12.1
2015-07-22T00:56:16.534Z,12.15
2015-07-22T00:56:28.878Z,12.19
2015-07-22T00:56:41.253Z,12.23
2015-07-22T00:56:53.630Z,12.15
2015-07-22T00:57:05.989Z,12.23
2015-07-22T00:57:18.380Z,12.11
2015-07-22T00:57:30.739Z,12.2
2015-07-22T00:57:43.130Z,12.13
2015-07-22T00:57:55.460Z,12.25
2015-07-22T00:58:07.803Z,12.16
2015-07-22T00:58:20.147Z,12.15
2015-07-22T00:58:32.491Z,12.15
2015-07-22T00:58:44.850Z,12.11
2015-07-22T00:58:57.180Z,12.18
2015-07-22T00:59:09.524Z,12.18
2015-07-22T00:59:21.868Z,12.16
2015-07-22T00:59:34.196Z,12.11
2015-07-22T00:59:46.540Z,12.15
2015-07-22T00:59:58.886Z,12.2
2015-07-22T01:00:11.229Z,12.18
2015-07-22T01:00:23.589Z,12.2
2015-07-22T01:00:35.917Z,12.23
2015-07-22T01:00:48.261Z,12.2
2015-07-22T01:01:00.606Z,12.1
2015-07-22T01:01:12.950Z,12.16
2015-07-22T01:01:25.294Z,12.1
2015-07-22T01:01:37.653Z,12.16
2015-07-22T01:01:49.997Z,12.13
2015-07-22T01:02:02.358Z,12.11
2015-07-22T01:02:14.780Z,12.16
2015-07-22T01:02:27.155Z,12.2
2015-07-22T01:02:39.530Z,12.16
2015-07-22T01:02:51.905Z,12.18
2015-07-22T01:03:04.298Z,12.2
2015-07-22T01:03:16.688Z,12.19
2015-07-22T01:03:28.313Z,12.18
2015-07-22T01:03:40.657Z,12.16
2015-07-22T01:03:53.001Z,12.1
2015-07-22T01:04:05.331Z,12.23
2015-07-22T01:04:17.675Z,12.23
2015-07-22T01:04:30.019Z,12.15
2015-07-22T01:04:42.362Z,12.18
2015-07-22T01:04:54.706Z,12.11
2015-07-22T01:05:07.052Z,12.19
2015-07-22T01:05:19.396Z,12.2
2015-07-22T01:05:31.724Z,12.13
2015-07-22T01:05:43.911Z,12.23
2015-07-22T01:05:56.239Z,12.22
2015-07-22T01:06:08.585Z,12.16
2015-07-22T01:06:20.929Z,12.19
2015-07-22T01:06:33.273Z,12.15
2015-07-22T01:06:45.601Z,12.22
2015-07-22T01:06:57.960Z,12.22
2015-07-22T01:07:10.306Z,12.19
2015-07-22T01:07:22.665Z,12.15
2015-07-22T01:07:35.040Z,12.15
2015-07-22T01:07:47.431Z,12.26
2015-07-22T01:07:59.806Z,12.15
2015-07-22T01:08:12.182Z,12.23
2015-07-22T01:08:24.557Z,12.2
2015-07-22T01:08:36.932Z,12.26
2015-07-22T01:08:49.276Z,12.25
2015-07-22T01:09:01.651Z,12.26
2015-07-22T01:09:13.982Z,12.26
2015-07-22T01:09:25.607Z,12.25
2015-07-22T01:09:38.232Z,12.15
2015-07-22T01:09:50.560Z,12.16
2015-07-22T01:10:02.904Z,12.13
2015-07-22T01:10:15.249Z,12.11
2015-07-22T01:10:27.598Z,12.1
2015-07-22T01:10:39.942Z,12.23
2015-07-22T01:10:52.285Z,12.16
2015-07-22T01:11:04.629Z,12.23
2015-07-22T01:11:16.974Z,12.15
2015-07-22T01:11:29.318Z,12.23
2015-07-22T01:11:41.661Z,12.22
2015-07-22T01:11:54.005Z,12.23
2015-07-22T01:12:06.349Z,12.13
2015-07-22T01:12:18.695Z,12.18
2015-07-22T01:12:31.038Z,12.11
2015-07-22T01:12:43.367Z,12.16
2015-07-22T01:12:55.726Z,12.13
2015-07-22T01:13:08.070Z,12.15
2015-07-22T01:13:20.448Z,12.18
2015-07-22T01:13:32.838Z,12.19
2015-07-22T01:13:45.213Z,12.19
2015-07-22T01:13:57.588Z,12.23
2015-07-22T01:14:09.963Z,12.18
2015-07-22T01:14:22.371Z,12.18
2015-07-22T01:14:34.746Z,12.18
2015-07-22T01:14:46.371Z,12.22
2015-07-22T01:14:58.714Z,12.15
2015-07-22T01:15:11.042Z,12.22
2015-07-22T01:15:23.389Z,12.16
2015-07-22T01:15:35.733Z,12.2
2015-07-22T01:15:48.061Z,12.22
2015-07-22T01:16:00.405Z,12.25
2015-07-22T01:16:12.733Z,12.16
2015-07-22T01:16:25.094Z,12.16
2015-07-22T01:16:37.438Z,12.22
2015-07-22T01:16:49.766Z,12.2
2015-07-22T01:17:02.126Z,12.19
2015-07-22T01:17:14.469Z,12.23
2015-07-22T01:17:26.831Z,12.23
2015-07-22T01:17:39.174Z,12.19
2015-07-22T01:17:51.518Z,12.22
2015-07-22T01:18:03.846Z,12.22
2015-07-22T01:18:16.206Z,12.2
2015-07-22T01:18:28.567Z,12.15
2015-07-22T01:18:40.911Z,12.19
2015-07-22T01:18:53.270Z,12.25
2015-07-22T01:19:05.645Z,12.29
2015-07-22T01:19:18.020Z,12.26
2015-07-22T01:19:30.381Z,12.23
2015-07-22T01:19:42.787Z,12.29
2015-07-22T01:19:55.162Z,12.28
2015-07-22T01:20:06.818Z,12.31
2015-07-22T01:20:19.193Z,12.33
2015-07-22T01:20:31.634Z,12.26
2015-07-22T01:20:43.977Z,12.33
2015-07-22T01:20:56.321Z,12.29
2015-07-22T01:21:08.649Z,12.26
2015-07-22T01:21:20.993Z,12.28
2015-07-22T01:21:33.338Z,12.29
2015-07-22T01:21:45.666Z,12.29
2015-07-22T01:21:58.010Z,12.33
2015-07-22T01:22:10.353Z,12.29
2015-07-22T01:22:22.713Z,12.33
2015-07-22T01:22:35.044Z,12.29
2015-07-22T01:22:47.403Z,12.34
2015-07-22T01:22:59.747Z,12.33
2015-07-22T01:23:12.091Z,12.38
2015-07-22T01:23:23.716Z,12.36
2015-07-22T01:23:36.061Z,12.31
2015-07-22T01:23:48.390Z,12.29
2015-07-22T01:24:00.733Z,12.29
2015-07-22T01:24:13.093Z,12.31
2015-07-22T01:24:25.436Z,12.29
2015-07-22T01:24:37.782Z,12.31
2015-07-22T01:24:50.142Z,12.37
2015-07-22T01:25:02.532Z,12.31
2015-07-22T01:25:14.892Z,12.29
2015-07-22T01:25:27.267Z,12.29
2015-07-22T01:25:39.643Z,12.31
2015-07-22T01:25:52.033Z,12.33
2015-07-22T01:26:04.377Z,12.4
2015-07-22T01:26:16.721Z,12.33
2015-07-22T01:26:29.064Z,12.33
2015-07-22T01:26:41.410Z,12.38
2015-07-22T01:26:53.754Z,12.36
2015-07-22T01:27:06.082Z,12.47
2015-07-22T01:27:18.426Z,12.33
2015-07-22T01:27:30.770Z,12.38
2015-07-22T01:27:43.101Z,12.33
2015-07-22T01:27:55.444Z,12.33
2015-07-22T01:28:07.788Z,12.37
2015-07-22T01:28:20.132Z,12.37
2015-07-22T01:28:32.460Z,12.37
2015-07-22T01:28:44.806Z,12.31
2015-07-22T01:28:57.150Z,12.37
2015-07-22T01:29:09.478Z,12.36
2015-07-22T01:29:21.837Z,12.34
2015-07-22T01:29:34.181Z,12.33
2015-07-22T01:29:46.527Z,12.29
2015-07-22T01:29:58.870Z,12.29
2015-07-22T01:30:11.230Z,12.28
2015-07-22T01:30:23.605Z,12.31
2015-07-22T01:30:35.964Z,12.37
2015-07-22T01:30:48.324Z,12.28
2015-07-22T01:31:00.699Z,12.29
2015-07-22T01:31:13.074Z,12.37
2015-07-22T01:31:25.434Z,12.33
2015-07-22T01:31:37.793Z,12.29
2015-07-22T01:31:50.123Z,12.33
2015-07-22T01:32:02.467Z,12.31
2015-07-22T01:32:14.811Z,12.38
2015-07-22T01:32:27.155Z,12.36
2015-07-22T01:32:39.516Z,12.33
2015-07-22T01:32:51.844Z,12.37
2015-07-22T01:33:04.188Z,12.31
2015-07-22T01:33:16.532Z,12.36
2015-07-22T01:33:28.875Z,12.31
2015-07-22T01:33:41.237Z,12.33
2015-07-22T01:33:53.565Z,12.33
2015-07-22T01:34:05.893Z,12.34
2015-07-22T01:34:18.237Z,12.34
2015-07-22T01:34:30.596Z,12.34
2015-07-22T01:34:42.223Z,12.38
2015-07-22T01:34:54.551Z,12.31
2015-07-22T01:35:06.911Z,12.31
2015-07-22T01:35:19.270Z,12.31
2015-07-22T01:35:31.614Z,12.33
2015-07-22T01:35:43.975Z,12.34
2015-07-22T01:35:56.350Z,12.33
2015-07-22T01:36:08.709Z,12.34
2015-07-22T01:36:21.084Z,12.31
2015-07-22T01:36:33.444Z,12.33
2015-07-22T01:36:45.805Z,12.33
2015-07-22T01:36:58.196Z,12.33
2015-07-22T01:37:10.555Z,12.36
2015-07-22T01:37:22.915Z,12.36
2015-07-22T01:37:35.274Z,12.36
2015-07-22T01:37:47.635Z,12.29
2015-07-22T01:37:59.963Z,12.36
2015-07-22T01:38:12.307Z,12.33
2015-07-22T01:38:24.651Z,12.31
2015-07-22T01:38:36.995Z,12.41
2015-07-22T01:38:49.324Z,12.33
2015-07-22T01:39:01.683Z,12.33
2015-07-22T01:39:14.011Z,12.34
2015-07-22T01:39:26.339Z,12.31
2015-07-22T01:39:38.683Z,12.28
2015-07-22T01:39:51.030Z,12.38
2015-07-22T01:40:03.374Z,12.31
2015-07-22T01:40:15.717Z,12.37
2015-07-22T01:40:28.061Z,12.29
2015-07-22T01:40:40.405Z,12.33
2015-07-22T01:40:52.751Z,12.36
2015-07-22T01:41:05.110Z,12.37
2015-07-22T01:41:17.454Z,12.33
2015-07-22T01:41:29.798Z,12.25
2015-07-22T01:41:42.188Z,12.29
2015-07-22T01:41:54.550Z,12.31
2015-07-22T01:42:06.940Z,12.31
2015-07-22T01:42:19.315Z,12.26
2015-07-22T01:42:31.690Z,12.26
2015-07-22T01:42:44.065Z,12.28
2015-07-22T01:42:56.426Z,12.29
2015-07-22T01:43:08.754Z,12.29
2015-07-22T01:43:21.097Z,12.28
2015-07-22T01:43:33.441Z,12.25
2015-07-22T01:43:45.785Z,12.26
2015-07-22T01:43:58.131Z,12.25
2015-07-22T01:44:10.474Z,12.31
2015-07-22T01:44:22.818Z,12.26
2015-07-22T01:44:35.178Z,12.26
2015-07-22T01:44:47.521Z,12.25
2015-07-22T01:44:59.884Z,12.29
2015-07-22T01:45:12.243Z,12.26
2015-07-22T01:45:24.587Z,12.26
2015-07-22T01:45:36.931Z,12.26
2015-07-22T01:45:49.274Z,12.23
2015-07-22T01:46:01.620Z,12.26
2015-07-22T01:46:13.964Z,12.28
2015-07-22T01:46:26.292Z,12.31
2015-07-22T01:46:38.667Z,12.23
2015-07-22T01:46:51.026Z,12.33
2015-07-22T01:47:03.372Z,12.25
2015-07-22T01:47:15.731Z,12.31
2015-07-22T01:47:28.106Z,12.36
2015-07-22T01:47:40.481Z,12.29
2015-07-22T01:47:52.841Z,12.29
2015-07-22T01:48:05.202Z,12.38
2015-07-22T01:48:17.577Z,12.31
2015-07-22T01:48:29.937Z,12.33
2015-07-22T01:48:42.265Z,12.36
2015-07-22T01:48:54.608Z,12.34
2015-07-22T01:49:06.938Z,12.36
2015-07-22T01:49:19.266Z,12.34
2015-07-22T01:49:31.609Z,12.38
2015-07-22T01:49:43.938Z,12.38
2015-07-22T01:49:56.281Z,12.41
2015-07-22T01:50:08.612Z,12.41
2015-07-22T01:50:20.972Z,12.36
2015-07-22T01:50:33.300Z,12.41
2015-07-22T01:50:45.628Z,12.4
2015-07-22T01:50:57.972Z,12.34
2015-07-22T01:51:10.301Z,12.41
2015-07-22T01:51:22.645Z,12.36
2015-07-22T01:51:34.973Z,12.33
2015-07-22T01:51:47.317Z,12.33
2015-07-22T01:51:59.660Z,12.34
2015-07-22T01:52:12.007Z,12.4
2015-07-22T01:52:24.351Z,12.33
2015-07-22T01:52:36.695Z,12.34
2015-07-22T01:52:49.054Z,12.36
2015-07-22T01:53:01.413Z,12.37
2015-07-22T01:53:13.774Z,12.4
2015-07-22T01:53:26.133Z,12.48
2015-07-22T01:53:38.492Z,12.41
2015-07-22T01:53:50.867Z,12.4
2015-07-22T01:54:03.227Z,12.45
2015-07-22T01:54:15.589Z,12.48
2015-07-22T01:54:27.933Z,12.38
2015-07-22T01:54:40.261Z,12.41
2015-07-22T01:54:52.589Z,12.33
2015-07-22T01:55:04.949Z,12.38
2015-07-22T01:55:17.293Z,12.47
2015-07-22T01:55:29.637Z,12.37
2015-07-22T01:55:41.965Z,12.4
2015-07-22T01:55:54.309Z,12.41
2015-07-22T01:56:06.653Z,12.4
2015-07-22T01:56:18.998Z,12.43
2015-07-22T01:56:31.327Z,12.41
2015-07-22T01:56:43.670Z,12.47
2015-07-22T01:56:56.014Z,12.44
2015-07-22T01:57:08.358Z,12.43
2015-07-22T01:57:20.704Z,12.44
2015-07-22T01:57:33.047Z,12.4
2015-07-22T01:57:44.688Z,12.45
2015-07-22T01:57:57.032Z,12.38
2015-07-22T01:58:09.391Z,12.37
2015-07-22T01:58:21.737Z,12.36
2015-07-22T01:58:34.112Z,12.37
2015-07-22T01:58:46.471Z,12.38
2015-07-22T01:58:58.846Z,12.41
2015-07-22T01:59:11.221Z,12.38
2015-07-22T01:59:22.880Z,12.43
2015-07-22T01:59:35.271Z,12.38
2015-07-22T01:59:47.646Z,12.34
2015-07-22T01:59:59.990Z,12.34
2015-07-22T02:00:11.615Z,12.36
2015-07-22T02:00:23.944Z,12.33
2015-07-22T02:00:36.288Z,12.31
2015-07-22T02:00:48.616Z,12.29
2015-07-22T02:01:00.975Z,12.33
2015-07-22T02:01:13.319Z,12.33
2015-07-22T02:01:25.665Z,12.38
2015-07-22T02:01:37.993Z,12.33
2015-07-22T02:01:50.337Z,12.36
2015-07-22T02:02:02.665Z,12.33
2015-07-22T02:02:15.008Z,12.37
2015-07-22T02:02:27.339Z,12.37
2015-07-22T02:02:39.698Z,12.37
2015-07-22T02:02:52.042Z,12.28
2015-07-22T02:03:04.385Z,12.28
2015-07-22T02:03:16.714Z,12.29
2015-07-22T02:03:29.059Z,12.28
2015-07-22T02:03:40.716Z,12.26
2015-07-22T02:03:53.059Z,12.26
2015-07-22T02:04:05.419Z,12.29
2015-07-22T02:04:17.794Z,12.26
2015-07-22T02:04:30.171Z,12.33
2015-07-22T02:04:42.546Z,12.28
2015-07-22T02:04:54.921Z,12.26
2015-07-22T02:05:07.327Z,12.29
2015-07-22T02:05:19.718Z,12.23
2015-07-22T02:05:32.173Z,12.25
2015-07-22T02:05:44.501Z,12.25
2015-07-22T02:05:56.845Z,12.28
2015-07-22T02:06:09.173Z,12.22
2015-07-22T02:06:21.516Z,12.25
2015-07-22T02:06:33.862Z,12.18
2015-07-22T02:06:46.206Z,12.33
2015-07-22T02:06:58.550Z,12.2
2015-07-22T02:07:10.893Z,12.26
2015-07-22T02:07:23.237Z,12.2
2015-07-22T02:07:35.583Z,12.23
2015-07-22T02:07:47.927Z,12.22
2015-07-22T02:08:00.255Z,12.25
2015-07-22T02:08:12.583Z,12.19
2015-07-22T02:08:24.942Z,12.2
2015-07-22T02:08:37.288Z,12.19
2015-07-22T02:08:49.616Z,12.25
2015-07-22T02:09:01.960Z,12.26
2015-07-22T02:09:14.304Z,12.23
2015-07-22T02:09:26.663Z,12.25
2015-07-22T02:09:39.009Z,12.23
2015-07-22T02:09:51.368Z,12.29
2015-07-22T02:10:03.759Z,12.23
2015-07-22T02:10:16.118Z,12.25
2015-07-22T02:10:28.493Z,12.23
2015-07-22T02:10:40.917Z,12.29
2015-07-22T02:10:53.308Z,12.26
2015-07-22T02:11:05.667Z,12.34
2015-07-22T02:11:18.011Z,12.31
2015-07-22T02:11:30.355Z,12.31
2015-07-22T02:11:42.700Z,12.26
2015-07-22T02:11:55.044Z,12.26
2015-07-22T02:12:07.372Z,12.28
2015-07-22T02:12:19.716Z,12.31
2015-07-22T02:12:32.060Z,12.26
2015-07-22T02:12:44.390Z,12.28
2015-07-22T02:12:56.749Z,12.31
2015-07-22T02:13:09.343Z,12.25
2015-07-22T02:13:21.687Z,12.26
2015-07-22T02:13:34.030Z,12.33
2015-07-22T02:13:46.376Z,12.33
2015-07-22T02:13:58.720Z,12.33
2015-07-22T02:14:11.064Z,12.29
2015-07-22T02:14:23.407Z,12.29
2015-07-22T02:14:35.752Z,12.34
2015-07-22T02:14:48.096Z,12.23
2015-07-22T02:15:00.455Z,12.26
2015-07-22T02:15:12.815Z,12.26
2015-07-22T02:15:25.158Z,12.26
2015-07-22T02:15:37.535Z,12.33
2015-07-22T02:15:49.895Z,12.29
2015-07-22T02:16:02.254Z,12.26
2015-07-22T02:16:14.614Z,12.25
2015-07-22T02:16:26.989Z,12.31
2015-07-22T02:16:39.382Z,12.26
2015-07-22T02:16:51.742Z,12.29
2015-07-22T02:17:04.132Z,12.29
2015-07-22T02:17:16.460Z,12.29
2015-07-22T02:17:27.398Z,12.28
2015-07-22T02:17:39.743Z,12.31
2015-07-22T02:17:52.071Z,12.31
2015-07-22T02:18:04.430Z,12.34
2015-07-22T02:18:16.758Z,12.29
2015-07-22T02:18:29.102Z,12.26
2015-07-22T02:18:41.433Z,12.34
2015-07-22T02:18:53.777Z,12.31
2015-07-22T02:19:06.121Z,12.29
2015-07-22T02:19:18.449Z,12.33
2015-07-22T02:19:30.792Z,12.28
2015-07-22T02:19:43.122Z,12.23
2015-07-22T02:19:55.465Z,12.31
2015-07-22T02:20:07.809Z,12.26
2015-07-22T02:20:20.137Z,12.29
2015-07-22T02:20:32.481Z,12.33
2015-07-22T02:20:44.842Z,12.31
2015-07-22T02:20:57.186Z,12.31
2015-07-22T02:21:09.530Z,12.31
2015-07-22T02:21:21.889Z,12.29
2015-07-22T02:21:34.280Z,12.37
2015-07-22T02:21:46.641Z,12.37
2015-07-22T02:21:59.032Z,12.4
2015-07-22T02:22:10.672Z,12.37
2015-07-22T02:22:23.063Z,12.4
2015-07-22T02:22:35.422Z,12.33
2015-07-22T02:22:47.628Z,12.37
2015-07-22T02:22:59.956Z,12.31
2015-07-22T02:23:12.299Z,12.33
2015-07-22T02:23:24.643Z,12.34
2015-07-22T02:23:36.987Z,12.37
2015-07-22T02:23:49.333Z,12.38
2015-07-22T02:24:01.676Z,12.34
2015-07-22T02:24:14.020Z,12.4
2015-07-22T02:24:26.364Z,12.33
2015-07-22T02:24:38.708Z,12.31
2015-07-22T02:24:51.038Z,12.33
2015-07-22T02:25:03.366Z,12.31
2015-07-22T02:25:15.710Z,12.34
2015-07-22T02:25:28.053Z,12.37
2015-07-22T02:25:40.397Z,12.4
2015-07-22T02:25:52.993Z,12.33
2015-07-22T02:26:05.352Z,12.4
2015-07-22T02:26:17.696Z,12.33
2015-07-22T02:26:30.055Z,12.36
2015-07-22T02:26:42.415Z,12.38
2015-07-22T02:26:54.792Z,12.29
2015-07-22T02:27:07.167Z,12.34
2015-07-22T02:27:19.542Z,12.34
2015-07-22T02:27:31.917Z,12.29
2015-07-22T02:27:44.276Z,12.34
2015-07-22T02:27:56.669Z,12.31
2015-07-22T02:28:09.028Z,12.29
2015-07-22T02:28:21.372Z,12.26
2015-07-22T02:28:33.716Z,12.29
2015-07-22T02:28:46.059Z,12.36
2015-07-22T02:28:58.390Z,12.28
2015-07-22T02:29:10.733Z,12.34
2015-07-22T02:29:23.061Z,12.26
2015-07-22T02:29:35.405Z,12.33
2015-07-22T02:29:47.733Z,12.29
2015-07-22T02:30:00.110Z,12.33
2015-07-22T02:30:12.454Z,12.34
2015-07-22T02:30:24.798Z,12.25
2015-07-22T02:30:37.126Z,12.31
2015-07-22T02:30:48.767Z,12.33
2015-07-22T02:31:01.097Z,12.33
2015-07-22T02:31:13.440Z,12.26
2015-07-22T02:31:25.784Z,12.33
2015-07-22T02:31:38.128Z,12.26
2015-07-22T02:31:50.472Z,12.31
2015-07-22T02:32:02.833Z,12.28
2015-07-22T02:32:15.177Z,12.26
2015-07-22T02:32:27.536Z,12.26
2015-07-22T02:32:39.896Z,12.23
2015-07-22T02:32:52.271Z,12.26
2015-07-22T02:33:04.632Z,12.25
2015-07-22T02:33:16.991Z,12.31
2015-07-22T02:33:29.382Z,12.25
2015-07-22T02:33:41.757Z,12.26
2015-07-22T02:33:54.132Z,12.25
2015-07-22T02:34:06.477Z,12.28
2015-07-22T02:34:18.805Z,12.26
2015-07-22T02:34:31.164Z,12.23
2015-07-22T02:34:43.524Z,12.28
2015-07-22T02:34:55.867Z,12.22
2015-07-22T02:35:08.214Z,12.26
2015-07-22T02:35:20.542Z,12.22
2015-07-22T02:35:32.886Z,12.23
2015-07-22T02:35:45.230Z,12.25
2015-07-22T02:35:57.573Z,12.25
2015-07-22T02:36:09.919Z,12.19
2015-07-22T02:36:21.544Z,12.26
2015-07-22T02:36:33.888Z,12.25
2015-07-22T02:36:46.232Z,12.18
2015-07-22T02:36:58.575Z,12.26
2015-07-22T02:37:11.202Z,12.23
2015-07-22T02:37:23.546Z,12.25
2015-07-22T02:37:35.890Z,12.26
2015-07-22T02:37:48.234Z,12.26
2015-07-22T02:38:00.595Z,12.2
2015-07-22T02:38:12.251Z,12.19
2015-07-22T02:38:24.626Z,12.28
2015-07-22T02:38:37.001Z,12.23
2015-07-22T02:38:49.376Z,12.28
2015-07-22T02:39:01.769Z,12.26
2015-07-22T02:39:14.144Z,12.25